createdAt,value
2022-08-07T00:02:40.797Z,99903.09
2022-08-07T00:04:58.788Z,99930.09
2022-08-07T00:07:27.414Z,99932.06
2022-08-07T00:10:18.763Z,99918.53
2022-08-07T00:13:00.075Z,99918.84
2022-08-07T00:15:38.123Z,99912.78
2022-08-07T00:18:20.126Z,99934.03
2022-08-07T00:20:51.953Z,99934.34
2022-08-07T00:23:21.619Z,99927.03
2022-08-07T00:26:01.542Z,99929.13
2022-08-07T00:28:34.373Z,99929.09
2022-08-07T00:31:06.099Z,99924.38
2022-08-07T00:33:36.595Z,99930.56
2022-08-07T00:36:07.842Z,99937.44
2022-08-07T00:38:39.138Z,99934.25
2022-08-07T00:41:10.104Z,99932.16
2022-08-07T00:44:01.617Z,99922.50
2022-08-07T00:46:32.879Z,99921.78
2022-08-07T00:49:04.999Z,99926.34
2022-08-07T00:51:56.730Z,99923.69
2022-08-07T00:54:23.129Z,99936.78
2022-08-07T00:56:51.823Z,99933.41
2022-08-07T00:59:35.884Z,99934.16
2022-08-07T01:02:13.942Z,99930.41
2022-08-07T01:04:48.684Z,99942.38
2022-08-07T01:07:18.453Z,99937.72
2022-08-07T01:10:06.620Z,99929.25
2022-08-07T01:12:36.435Z,99948.16
2022-08-07T01:15:16.894Z,99948.75
2022-08-07T01:17:45.892Z,99933.63
2022-08-07T01:20:17.485Z,99945.63
2022-08-07T01:23:00.618Z,99941.78
2022-08-07T01:25:54.642Z,99935.97
2022-08-07T01:28:24.823Z,99930.22
2022-08-07T01:30:55.716Z,99940.81
2022-08-07T01:33:30.165Z,99938.50
2022-08-07T01:36:16.796Z,99930.34
2022-08-07T01:38:45.593Z,99932.53
2022-08-07T01:41:26.195Z,99924.59
2022-08-07T01:43:56.087Z,99927.09
2022-08-07T01:46:24.328Z,99936.69
2022-08-07T01:48:53.720Z,99927.47
2022-08-07T01:52:03.211Z,99925.25
2022-08-07T01:54:32.699Z,99933.66
2022-08-07T01:57:24.212Z,99937.72
2022-08-07T02:00:03.485Z,99934.31
2022-08-07T02:03:18.524Z,99932.34
2022-08-07T02:05:59.655Z,99933.03
2022-08-07T02:08:32.881Z,99932.91
2022-08-07T02:11:04.464Z,99932.59
2022-08-07T02:14:00.695Z,99894.25
2022-08-07T02:16:33.297Z,99923.81
2022-08-07T02:20:07.835Z,99906.00
2022-08-07T02:21:58.635Z,99937.38
2022-08-07T02:24:29.904Z,99937.38
2022-08-07T02:27:02.494Z,99941.50
2022-08-07T02:29:34.506Z,99935.97
2022-08-07T02:32:13.288Z,99928.59
2022-08-07T02:34:48.756Z,99942.31
2022-08-07T02:37:18.655Z,99922.69
2022-08-07T02:40:02.256Z,99917.31
2022-08-07T02:42:40.303Z,99912.19
2022-08-07T02:45:58.827Z,99909.91
2022-08-07T02:48:02.040Z,99912.16
2022-08-07T02:50:30.852Z,99919.09
2022-08-07T02:53:15.962Z,99911.72
2022-08-07T02:56:03.220Z,99895.47
2022-08-07T02:58:35.561Z,99914.31
2022-08-07T03:01:05.233Z,99912.66
2022-08-07T03:03:50.581Z,99905.84
2022-08-07T03:06:25.910Z,99906.66
2022-08-07T03:09:11.160Z,99913.56
2022-08-07T03:12:22.027Z,99908.44
2022-08-07T03:15:02.561Z,99913.53
2022-08-07T03:17:52.814Z,99927.22
2022-08-07T03:20:21.594Z,99919.50
2022-08-07T03:22:51.431Z,99912.03
2022-08-07T03:25:21.414Z,99913.22
2022-08-07T03:28:37.648Z,99912.91
2022-08-07T03:31:24.737Z,99912.56
2022-08-07T03:34:10.566Z,99894.91
2022-08-07T03:36:57.309Z,99917.50
2022-08-07T03:39:59.803Z,99924.28
2022-08-07T03:42:18.812Z,99919.47
2022-08-07T03:44:53.618Z,99896.38
2022-08-07T03:47:29.543Z,99921.88
2022-08-07T03:50:22.863Z,99920.84
2022-08-07T03:52:53.533Z,99910.97
2022-08-07T03:55:23.159Z,99908.06
2022-08-07T03:59:05.400Z,99902.31
2022-08-07T04:00:46.325Z,99886.38
2022-08-07T04:03:23.193Z,99912.81
2022-08-07T04:05:51.799Z,99912.44
2022-08-07T04:08:27.946Z,99906.84
2022-08-07T04:12:24.666Z,99911.78
2022-08-07T04:14:10.207Z,99899.44
2022-08-07T04:16:40.396Z,99890.66
2022-08-07T04:19:51.115Z,99895.44
2022-08-07T04:23:19.237Z,99909.34
2022-08-07T04:25:53.582Z,99842.97
2022-08-07T04:28:38.265Z,99880.66
2022-08-07T04:31:38.496Z,99904.25
2022-08-07T04:34:16.397Z,99913.41
2022-08-07T04:36:48.736Z,99901.41
2022-08-07T04:39:20.022Z,99901.69
2022-08-07T04:41:54.092Z,99911.13
2022-08-07T04:44:22.398Z,99885.84
2022-08-07T04:47:04.612Z,99909.31
2022-08-07T04:50:11.009Z,99900.84
2022-08-07T04:53:39.980Z,99902.88
2022-08-07T04:58:16.216Z,99857.34
2022-08-07T05:00:09.477Z,99889.75
2022-08-07T05:02:45.597Z,99897.31
2022-08-07T05:05:53.436Z,99887.31
2022-08-07T05:08:59.482Z,99879.25
2022-08-07T05:12:02.354Z,99882.47
2022-08-07T05:15:23.411Z,99889.50
2022-08-07T05:18:01.548Z,99892.03
2022-08-07T05:20:41.085Z,99884.19
2022-08-07T05:23:36.526Z,99867.66
2022-08-07T05:26:15.259Z,99890.88
2022-08-07T05:28:59.750Z,99893.81
2022-08-07T05:31:37.933Z,99888.50
2022-08-07T05:34:12.986Z,99882.91
2022-08-07T05:36:52.926Z,99889.00
2022-08-07T05:40:18.143Z,99884.28
2022-08-07T05:42:15.824Z,99892.84
2022-08-07T05:45:14.385Z,99895.94
2022-08-07T05:48:03.884Z,99878.09
2022-08-07T05:50:35.692Z,99881.00
2022-08-07T05:53:07.884Z,99889.09
2022-08-07T05:56:03.735Z,99896.38
2022-08-07T05:58:37.396Z,99894.53
2022-08-07T06:01:10.993Z,99891.91
2022-08-07T06:03:53.482Z,99891.31
2022-08-07T06:06:29.989Z,99877.88
2022-08-07T06:09:11.127Z,99884.66
2022-08-07T06:11:41.055Z,99861.56
2022-08-07T06:14:20.994Z,99881.25
2022-08-07T06:17:01.261Z,99887.09
2022-08-07T06:19:51.905Z,99880.00
2022-08-07T06:22:27.386Z,99884.66
2022-08-07T06:25:01.138Z,99892.72
2022-08-07T06:28:00.583Z,99878.84
2022-08-07T06:30:32.279Z,99879.19
2022-08-07T06:33:09.930Z,99877.09
2022-08-07T06:36:06.372Z,99882.47
2022-08-07T06:38:35.365Z,99884.41
2022-08-07T06:41:09.752Z,99880.38
2022-08-07T06:43:46.162Z,99879.31
2022-08-07T06:46:16.981Z,99873.22
2022-08-07T06:48:59.805Z,99873.22
2022-08-07T06:51:35.167Z,99873.56
2022-08-07T06:55:33.714Z,99861.56
2022-08-07T06:57:10.149Z,99867.81
2022-08-07T07:00:14.271Z,99860.13
2022-08-07T07:02:54.371Z,99854.78
2022-08-07T07:06:03.615Z,99826.59
2022-08-07T07:08:18.583Z,99849.91
2022-08-07T07:11:14.525Z,99841.72
2022-08-07T07:14:03.057Z,99850.22
2022-08-07T07:16:45.102Z,99840.31
2022-08-07T07:22:36.673Z,99837.13
2022-08-07T07:26:32.038Z,99802.22
2022-08-07T07:28:29.629Z,99822.59
2022-08-07T07:31:08.947Z,99827.69
2022-08-07T07:33:39.208Z,99824.38
2022-08-07T07:36:32.298Z,99807.69
2022-08-07T07:39:05.685Z,99797.66
2022-08-07T07:41:50.797Z,99822.78
2022-08-07T07:44:25.796Z,99815.66
2022-08-07T07:47:01.246Z,99811.28
2022-08-07T07:50:35.101Z,99815.34
2022-08-07T07:52:33.112Z,99796.09
2022-08-07T07:55:03.560Z,99808.13
2022-08-07T07:57:52.402Z,99813.25
2022-08-07T08:00:29.714Z,99807.31
2022-08-07T08:03:16.560Z,99794.22
2022-08-07T08:06:00.381Z,99802.94
2022-08-07T08:08:36.876Z,99808.19
2022-08-07T08:11:16.457Z,99794.41
2022-08-07T08:13:55.382Z,99801.09
2022-08-07T08:18:36.936Z,99794.34
2022-08-07T08:20:17.830Z,99779.53
2022-08-07T08:22:54.384Z,99798.28
2022-08-07T08:25:49.296Z,99795.50
2022-08-07T08:28:38.314Z,99765.19
2022-08-07T08:31:58.696Z,99784.25
2022-08-07T08:34:26.703Z,99765.22
2022-08-07T08:36:59.167Z,99793.69
2022-08-07T08:39:39.425Z,99757.66
2022-08-07T08:42:40.403Z,99793.81
2022-08-07T08:45:13.279Z,99796.06
2022-08-07T08:47:55.009Z,99788.25
2022-08-07T08:50:45.730Z,99785.97
2022-08-07T08:53:31.125Z,99775.91
2022-08-07T08:56:05.715Z,99734.47
2022-08-07T08:59:13.715Z,99779.63
2022-08-07T09:01:51.166Z,99782.31
2022-08-07T09:04:44.208Z,99785.00
2022-08-07T09:07:58.228Z,99782.53
2022-08-07T09:10:34.905Z,99766.25
2022-08-07T09:13:07.707Z,99782.78
2022-08-07T09:16:22.377Z,99776.06
2022-08-07T09:19:07.293Z,99784.47
2022-08-07T09:24:28.113Z,99776.66
2022-08-07T09:25:17.269Z,99746.72
2022-08-07T09:30:01.672Z,99773.03
2022-08-07T09:31:49.533Z,99779.56
2022-08-07T09:34:38.126Z,99770.69
2022-08-07T09:37:47.812Z,99767.41
2022-08-07T09:40:55.027Z,99775.28
2022-08-07T09:44:03.211Z,99743.09
2022-08-07T09:47:52.329Z,99767.88
2022-08-07T09:50:01.161Z,99767.97
2022-08-07T09:52:51.899Z,99750.91
2022-08-07T09:56:03.341Z,99779.53
2022-08-07T09:59:14.592Z,99769.53
2022-08-07T10:01:58.495Z,99776.41
2022-08-07T10:04:59.515Z,99754.28
2022-08-07T10:07:58.914Z,99774.44
2022-08-07T10:11:16.666Z,99782.00
2022-08-07T10:14:01.959Z,99783.03
2022-08-07T10:16:50.854Z,99788.28
2022-08-07T10:19:49.138Z,99790.97
2022-08-07T10:22:56.083Z,99783.97
2022-08-07T10:25:52.909Z,99783.97
2022-08-07T10:28:27.275Z,99782.31
2022-08-07T10:34:06.199Z,99754.63
2022-08-07T10:37:15.394Z,99777.25
2022-08-07T10:40:09.158Z,99745.66
2022-08-07T10:42:39.371Z,99787.88
2022-08-07T10:45:19.438Z,99783.44
2022-08-07T10:48:35.471Z,99745.06
2022-08-07T10:51:39.740Z,99786.47
2022-08-07T10:54:22.807Z,99754.16
2022-08-07T10:57:15.593Z,99782.63
2022-08-07T11:00:36.975Z,99783.31
2022-08-07T11:03:13.519Z,99751.38
2022-08-07T11:06:22.130Z,99719.94
2022-08-07T11:09:00.958Z,99764.78
2022-08-07T11:11:59.215Z,99763.84
2022-08-07T11:14:59.942Z,99783.78
2022-08-07T11:17:45.756Z,99763.25
2022-08-07T11:20:43.178Z,99770.38
2022-08-07T11:23:48.288Z,99784.25
2022-08-07T11:26:28.972Z,99757.66
2022-08-07T11:29:42.082Z,99783.19
2022-08-07T11:32:25.238Z,99776.66
2022-08-07T11:35:13.283Z,99740.44
2022-08-07T11:38:12.524Z,99777.13
2022-08-07T11:41:02.219Z,99772.00
2022-08-07T11:44:11.104Z,99759.88
2022-08-07T11:47:10.562Z,99767.13
2022-08-07T11:50:31.095Z,99777.13
2022-08-07T11:53:36.958Z,99770.38
2022-08-07T11:56:26.718Z,99778.06
2022-08-07T12:00:08.127Z,99781.44
2022-08-07T12:02:34.473Z,99790.91
2022-08-07T12:05:28.269Z,99786.94
2022-08-07T12:08:31.403Z,99795.41
2022-08-07T12:11:20.054Z,99793.44
2022-08-07T12:13:57.727Z,99796.44
2022-08-07T12:16:36.306Z,99779.72
2022-08-07T12:19:21.617Z,99792.16
2022-08-07T12:22:38.055Z,99794.31
2022-08-07T12:26:00.343Z,99798.34
2022-08-07T12:28:09.414Z,99795.50
2022-08-07T12:30:46.912Z,99809.09
2022-08-07T12:33:30.787Z,99797.53
2022-08-07T12:36:13.620Z,99799.75
2022-08-07T12:38:47.414Z,99789.03
2022-08-07T12:41:46.251Z,99803.44
2022-08-07T12:44:22.106Z,99807.03
2022-08-07T12:47:21.416Z,99807.25
2022-08-07T12:50:38.954Z,99805.00
2022-08-07T12:53:17.371Z,99769.69
2022-08-07T12:56:18.558Z,99805.38
2022-08-07T12:58:57.240Z,99808.50
2022-08-07T13:01:32.777Z,99807.31
2022-08-07T13:04:34.469Z,99797.09
2022-08-07T13:07:17.934Z,99817.81
2022-08-07T13:10:39.515Z,99806.97
2022-08-07T13:13:47.994Z,99810.25
2022-08-07T13:16:38.609Z,99807.66
2022-08-07T13:19:34.876Z,99802.38
2022-08-07T13:22:27.501Z,99795.22
2022-08-07T13:25:00.114Z,99802.00
2022-08-07T13:28:10.882Z,99806.13
2022-08-07T13:30:53.299Z,99792.41
2022-08-07T13:34:33.314Z,99808.84
2022-08-07T13:36:39.689Z,99809.94
2022-08-07T13:39:28.625Z,99814.50
2022-08-07T13:42:11.014Z,99814.31
2022-08-07T13:44:43.077Z,99805.75
2022-08-07T13:48:06.034Z,99809.91
2022-08-07T13:50:35.519Z,99786.84
2022-08-07T13:53:23.597Z,99820.06
2022-08-07T13:55:54.637Z,99812.72
2022-08-07T13:58:56.163Z,99825.44
2022-08-07T14:01:29.747Z,99824.63
2022-08-07T14:04:12.012Z,99822.22
2022-08-07T14:06:47.622Z,99831.88
2022-08-07T14:10:02.136Z,99824.13
2022-08-07T14:12:30.342Z,99822.94
2022-08-07T14:15:08.426Z,99833.59
2022-08-07T14:18:24.081Z,99830.97
2022-08-07T14:20:40.260Z,99833.03
2022-08-07T14:23:59.098Z,99818.50
2022-08-07T14:26:28.132Z,99825.47
2022-08-07T14:29:05.921Z,99792.09
2022-08-07T14:31:57.700Z,99829.97
2022-08-07T14:35:04.239Z,99834.91
2022-08-07T14:37:39.317Z,99822.22
2022-08-07T14:43:57.180Z,99769.59
2022-08-07T14:46:32.452Z,99830.41
2022-08-07T14:49:17.480Z,99813.41
2022-08-07T14:52:03.946Z,99819.97
2022-08-07T14:54:42.940Z,99830.81
2022-08-07T14:57:24.874Z,99838.34
2022-08-07T15:02:56.845Z,99837.88
2022-08-07T15:05:27.297Z,99836.03
2022-08-07T15:08:00.397Z,99828.25
2022-08-07T15:10:30.546Z,99833.53
2022-08-07T15:13:06.081Z,99845.41
2022-08-07T15:15:43.598Z,99813.78
2022-08-07T15:18:35.870Z,99851.09
2022-08-07T15:21:43.895Z,99845.78
2022-08-07T15:25:13.967Z,99852.94
2022-08-07T15:27:12.808Z,99849.59
2022-08-07T15:30:04.879Z,99848.94
2022-08-07T15:32:50.875Z,99834.19
2022-08-07T15:36:00.575Z,99851.59
2022-08-07T15:38:51.772Z,99811.78
2022-08-07T15:42:42.296Z,99849.28
2022-08-07T15:44:18.225Z,99822.22
2022-08-07T15:46:56.554Z,99836.94
2022-08-07T15:50:04.377Z,99838.38
2022-08-07T15:52:29.641Z,99825.75
2022-08-07T15:55:08.914Z,99834.16
2022-08-07T15:57:48.444Z,99779.69
2022-08-07T16:00:31.449Z,99845.13
2022-08-07T16:03:46.327Z,99861.50
2022-08-07T16:06:11.528Z,99857.38
2022-08-07T16:08:45.473Z,99816.88
2022-08-07T16:11:51.892Z,99860.22
2022-08-07T16:14:54.558Z,99868.97
2022-08-07T16:18:04.028Z,99875.03
2022-08-07T16:20:55.156Z,99849.75
2022-08-07T16:24:33.661Z,99863.13
2022-08-07T16:27:18.967Z,99864.50
2022-08-07T16:30:30.511Z,99868.53
2022-08-07T16:34:03.256Z,99860.69
2022-08-07T16:37:02.410Z,99867.22
2022-08-07T16:39:56.017Z,99860.78
2022-08-07T16:42:32.490Z,99880.00
2022-08-07T16:46:47.284Z,99874.44
2022-08-07T16:48:30.049Z,99875.94
2022-08-07T16:54:22.497Z,99875.31
2022-08-07T16:58:02.553Z,99877.88
2022-08-07T17:00:29.867Z,99882.94
2022-08-07T17:03:17.862Z,99866.31
2022-08-07T17:06:28.212Z,99875.72
2022-08-07T17:09:54.818Z,99875.91
2022-08-07T17:12:52.889Z,99884.88
2022-08-07T17:15:43.642Z,99863.31
2022-08-07T17:18:30.286Z,99878.94
2022-08-07T17:20:58.906Z,99868.34
2022-08-07T17:23:32.216Z,99886.25
2022-08-07T17:26:35.849Z,99877.66
2022-08-07T17:30:15.026Z,99863.88
2022-08-07T17:32:30.771Z,99865.25
2022-08-07T17:35:50.342Z,99884.72
2022-08-07T17:38:33.637Z,99875.69
2022-08-07T17:42:04.863Z,99872.19
2022-08-07T17:44:46.931Z,99882.34
2022-08-07T17:47:41.783Z,99875.22
2022-08-07T17:50:42.547Z,99873.59
2022-08-07T17:54:00.673Z,99869.28
2022-08-07T17:56:49.435Z,99882.53
2022-08-07T17:59:43.331Z,99857.84
2022-08-07T18:02:33.519Z,99869.00
2022-08-07T18:05:20.677Z,99865.50
2022-08-07T18:09:01.426Z,99873.28
2022-08-07T18:12:07.518Z,99864.44
2022-08-07T18:15:01.803Z,99877.03
2022-08-07T18:18:45.694Z,99875.75
2022-08-07T18:21:37.337Z,99881.63
2022-08-07T18:24:40.389Z,99880.72
2022-08-07T18:27:46.268Z,99887.56
2022-08-07T18:30:32.401Z,99891.56
2022-08-07T18:33:32.060Z,99884.19
2022-08-07T18:36:33.136Z,99884.34
2022-08-07T18:40:06.631Z,99882.06
2022-08-07T18:42:28.748Z,99881.72
2022-08-07T18:45:39.881Z,99875.56
2022-08-07T18:50:05.729Z,99880.97
2022-08-07T18:52:34.806Z,99844.44
2022-08-07T18:54:50.832Z,99876.50
2022-08-07T18:57:36.965Z,99874.56
2022-08-07T19:00:33.046Z,99874.09
2022-08-07T19:03:12.489Z,99870.19
2022-08-07T19:06:16.394Z,99872.66
2022-08-07T19:08:56.769Z,99871.19
2022-08-07T19:12:06.357Z,99862.41
2022-08-07T19:14:51.318Z,99850.13
2022-08-07T19:18:01.190Z,99871.16
2022-08-07T19:21:09.603Z,99869.47
2022-08-07T19:23:57.963Z,99866.84
2022-08-07T19:26:53.484Z,99877.72
2022-08-07T19:31:03.675Z,99870.59
2022-08-07T19:32:28.912Z,99879.53
2022-08-07T19:35:03.904Z,99857.97
2022-08-07T19:37:56.221Z,99869.66
2022-08-07T19:40:30.898Z,99862.59
2022-08-07T19:43:02.328Z,99870.53
2022-08-07T19:46:05.795Z,99863.25
2022-08-07T19:48:42.646Z,99858.78
2022-08-07T19:51:19.359Z,99850.09
2022-08-07T19:54:32.105Z,99859.31
2022-08-07T19:57:51.866Z,99868.84
2022-08-07T19:59:43.787Z,99883.19
2022-08-07T20:02:29.464Z,99863.84
2022-08-07T20:05:01.582Z,99875.00
2022-08-07T20:07:46.266Z,99814.47
2022-08-07T20:10:37.205Z,99870.47
2022-08-07T20:13:23.539Z,99879.72
2022-08-07T20:15:58.086Z,99854.25
2022-08-07T20:18:32.697Z,99828.66
2022-08-07T20:21:14.807Z,99871.66
2022-08-07T20:24:04.986Z,99866.44
2022-08-07T20:26:45.134Z,99844.81
2022-08-07T20:29:49.347Z,99851.22
2022-08-07T20:32:25.197Z,99850.75
2022-08-07T20:35:00.172Z,99867.09
2022-08-07T20:37:46.722Z,99854.41
2022-08-07T20:40:33.480Z,99867.72
2022-08-07T20:43:14.679Z,99860.06
2022-08-07T20:46:26.875Z,99862.78
2022-08-07T20:48:58.144Z,99845.91
2022-08-07T20:51:40.271Z,99856.66
2022-08-07T20:54:15.172Z,99873.19
2022-08-07T20:57:05.230Z,99873.34
2022-08-07T21:00:08.219Z,99876.81
2022-08-07T21:02:54.508Z,99871.88
2022-08-07T21:05:56.234Z,99880.00
2022-08-07T21:08:44.172Z,99875.25
2022-08-07T21:11:22.027Z,99878.88
2022-08-07T21:14:31.703Z,99878.41
2022-08-07T21:18:00.412Z,99876.13
2022-08-07T21:20:04.787Z,99876.47
2022-08-07T21:22:51.406Z,99883.19
2022-08-07T21:25:39.044Z,99868.06
2022-08-07T21:28:16.758Z,99883.53
2022-08-07T21:31:17.705Z,99883.53
2022-08-07T21:34:16.390Z,99886.00
2022-08-07T21:37:00.439Z,99876.06
2022-08-07T21:39:45.271Z,99886.66
2022-08-07T21:42:55.534Z,99879.53
2022-08-07T21:46:10.108Z,99888.66
2022-08-07T21:48:57.490Z,99887.19
2022-08-07T21:51:32.058Z,99886.34
2022-08-07T21:54:39.103Z,99880.41
2022-08-07T21:58:30.575Z,99880.47
2022-08-07T22:01:13.927Z,99864.50
2022-08-07T22:04:13.323Z,99800.25
2022-08-07T22:07:14.043Z,99877.47
2022-08-07T22:09:53.838Z,99826.25
2022-08-07T22:12:24.526Z,99879.47
2022-08-07T22:15:00.632Z,99873.72
2022-08-07T22:17:37.788Z,99841.28
2022-08-07T22:20:22.996Z,99875.88
2022-08-07T22:23:01.780Z,99876.53
2022-08-07T22:25:42.604Z,99864.97
2022-08-07T22:28:53.129Z,99879.94
2022-08-07T22:32:00.390Z,99885.34
2022-08-07T22:34:54.627Z,99866.06
2022-08-07T22:38:04.284Z,99881.00
2022-08-07T22:40:34.719Z,99887.28
2022-08-07T22:43:16.609Z,99877.94
2022-08-07T22:46:21.583Z,99888.28
2022-08-07T22:49:20.693Z,99871.06
2022-08-07T22:52:37.499Z,99893.59
2022-08-07T22:55:22.733Z,99906.00
2022-08-07T22:58:27.718Z,99898.06
2022-08-07T23:01:42.116Z,99886.25
2022-08-07T23:04:56.724Z,99914.41
2022-08-07T23:08:07.119Z,99912.28
2022-08-07T23:11:35.208Z,99910.56
2022-08-07T23:14:53.391Z,99923.78
2022-08-07T23:17:57.478Z,99912.91
2022-08-07T23:20:52.675Z,99924.63
2022-08-07T23:24:06.888Z,99917.34
2022-08-07T23:27:07.692Z,99934.97
2022-08-07T23:30:37.395Z,99936.44
2022-08-07T23:34:34.161Z,99931.31
2022-08-07T23:36:28.829Z,99935.38
2022-08-07T23:39:13.355Z,99946.44
2022-08-07T23:42:04.236Z,99930.63
2022-08-07T23:45:33.225Z,99953.22
2022-08-07T23:48:29.068Z,99947.91
2022-08-07T23:53:00.046Z,99948.91
2022-08-07T23:54:46.583Z,99950.56
2022-08-07T23:57:50.284Z,99949.38
